KCHS/CHS METAR and TAF weather

Enter ICAO airport designator
Station Type Date Time Source
KCHS METAR 2022/01/29 09:56 UTC NOAA

KCHS 290956Z 29014G20KT 6SM -RA BR BKN014 OVC022 02/00 A2986 RMK AO2 PK WND 31028/0902 RAB0859FZRAE0859SNE51 SLP111 P0002 T00170000


Station Type Date Time Source
KCHS Decoded METAR 2022/01/29 09:56 UTC NOAA

CHARLESTON INT'L AIRPORT, SC, United States (KCHS) 32-54N 080-02W 13M
Jan 29, 2022 - 04:56 AM EST / 2022.01.29 0956 UTC
Wind: from the WNW (290 degrees) at 16 MPH (14 KT) gusting to 23 MPH (20 KT):0
Visibility: 6 mile(s):0
Sky conditions: overcast
Weather: light rain; mist
Precipitation last hour: 0.02 inches
Temperature: 35.1 F (1.7 C)
Dew Point: 32.0 F (0.0 C)
Relative Humidity: 88%
Pressure (altimeter): 29.86 in. Hg (1011 hPa)
ob: KCHS 290956Z 29014G20KT 6SM -RA BR BKN014 OVC022 02/00 A2986 RMK AO2 PK WND 31028/0902 RAB0859FZRAE0859SNE51 SLP111 P0002 T00170000
cycle: 10

Station Type Date Time Source
KCHS TAF 2022/01/29 06:31 UTC NOAA

TAF KCHS 290527Z 2906/3006 30012G18KT P6SM VCSH SCT020 OVC060
FM290800 30012G20KT P6SM -SNRA SCT020 OVC040
TEMPO 2908/2911 5SM -SN BR BKN025
FM291100 31014G22KT P6SM -SN SCT020 BKN035
FM291300 32015G23KT P6SM BKN050
FM291700 32017G27KT P6SM SKC
FM292300 32005KT P6SM SKC

Example: see airport list